sensor_id;sensor_type;location;lat;lon;timestamp;P1;durP1;ratioP1;P2;durP2;ratioP2
11847;SDS011;5983;49.966;8.052;2022-11-15T00:00:47;10.40;;;6.23;;
11847;SDS011;5983;49.966;8.052;2022-11-15T00:03:14;10.50;;;6.93;;
11847;SDS011;5983;49.966;8.052;2022-11-15T00:05:42;12.03;;;7.30;;
11847;SDS011;5983;49.966;8.052;2022-11-15T00:08:09;10.73;;;6.87;;
11847;SDS011;5983;49.966;8.052;2022-11-15T00:10:37;9.60;;;7.10;;
11847;SDS011;5983;49.966;8.052;2022-11-15T00:13:05;10.67;;;6.80;;
11847;SDS011;5983;49.966;8.052;2022-11-15T00:15:35;9.77;;;7.67;;
11847;SDS011;5983;49.966;8.052;2022-11-15T00:18:03;11.60;;;7.50;;
11847;SDS011;5983;49.966;8.052;2022-11-15T00:20:31;13.93;;;7.30;;
11847;SDS011;5983;49.966;8.052;2022-11-15T00:23:00;10.13;;;7.20;;
11847;SDS011;5983;49.966;8.052;2022-11-15T00:25:29;10.17;;;6.83;;
11847;SDS011;5983;49.966;8.052;2022-11-15T00:27:56;10.03;;;7.00;;
11847;SDS011;5983;49.966;8.052;2022-11-15T00:30:25;10.70;;;6.83;;
11847;SDS011;5983;49.966;8.052;2022-11-15T00:32:55;8.33;;;6.87;;
11847;SDS011;5983;49.966;8.052;2022-11-15T00:35:22;8.20;;;6.37;;
11847;SDS011;5983;49.966;8.052;2022-11-15T00:37:49;9.20;;;6.87;;
11847;SDS011;5983;49.966;8.052;2022-11-15T00:40:18;9.40;;;6.53;;
11847;SDS011;5983;49.966;8.052;2022-11-15T00:42:45;9.97;;;7.40;;
11847;SDS011;5983;49.966;8.052;2022-11-15T00:45:12;9.03;;;6.83;;
11847;SDS011;5983;49.966;8.052;2022-11-15T00:47:39;10.67;;;7.57;;
11847;SDS011;5983;49.966;8.052;2022-11-15T00:50:08;8.73;;;6.90;;
11847;SDS011;5983;49.966;8.052;2022-11-15T00:52:35;9.80;;;6.87;;
11847;SDS011;5983;49.966;8.052;2022-11-15T00:55:02;11.03;;;6.63;;
11847;SDS011;5983;49.966;8.052;2022-11-15T00:57:30;9.10;;;6.50;;
11847;SDS011;5983;49.966;8.052;2022-11-15T00:59:57;10.37;;;7.53;;
11847;SDS011;5983;49.966;8.052;2022-11-15T01:02:24;9.17;;;7.40;;
11847;SDS011;5983;49.966;8.052;2022-11-15T01:04:51;11.70;;;7.20;;
11847;SDS011;5983;49.966;8.052;2022-11-15T01:07:19;10.07;;;7.73;;
11847;SDS011;5983;49.966;8.052;2022-11-15T01:09:46;10.83;;;7.30;;
11847;SDS011;5983;49.966;8.052;2022-11-15T01:12:13;11.50;;;7.73;;
11847;SDS011;5983;49.966;8.052;2022-11-15T01:14:40;10.40;;;7.40;;
11847;SDS011;5983;49.966;8.052;2022-11-15T01:17:10;10.80;;;7.37;;
11847;SDS011;5983;49.966;8.052;2022-11-15T01:19:37;10.23;;;7.30;;
11847;SDS011;5983;49.966;8.052;2022-11-15T01:22:04;8.93;;;6.90;;
11847;SDS011;5983;49.966;8.052;2022-11-15T01:24:32;10.97;;;7.13;;
11847;SDS011;5983;49.966;8.052;2022-11-15T01:26:59;12.33;;;8.13;;
11847;SDS011;5983;49.966;8.052;2022-11-15T01:29:26;8.33;;;6.43;;
11847;SDS011;5983;49.966;8.052;2022-11-15T01:31:53;9.97;;;6.53;;
11847;SDS011;5983;49.966;8.052;2022-11-15T01:34:20;8.33;;;6.37;;
11847;SDS011;5983;49.966;8.052;2022-11-15T01:36:47;11.00;;;7.57;;
11847;SDS011;5983;49.966;8.052;2022-11-15T01:39:14;11.90;;;7.13;;
11847;SDS011;5983;49.966;8.052;2022-11-15T01:41:43;11.03;;;6.47;;
11847;SDS011;5983;49.966;8.052;2022-11-15T01:47:08;9.77;;;6.87;;
11847;SDS011;5983;49.966;8.052;2022-11-15T01:49:41;9.33;;;7.07;;
11847;SDS011;5983;49.966;8.052;2022-11-15T01:52:19;8.23;;;6.77;;
11847;SDS011;5983;49.966;8.052;2022-11-15T01:54:51;9.57;;;6.57;;
11847;SDS011;5983;49.966;8.052;2022-11-15T01:57:27;9.47;;;6.50;;
11847;SDS011;5983;49.966;8.052;2022-11-15T01:59:55;9.27;;;7.00;;
11847;SDS011;5983;49.966;8.052;2022-11-15T02:02:24;9.30;;;6.73;;
11847;SDS011;5983;49.966;8.052;2022-11-15T02:04:51;11.30;;;7.27;;
11847;SDS011;5983;49.966;8.052;2022-11-15T02:07:19;10.43;;;7.43;;
11847;SDS011;5983;49.966;8.052;2022-11-15T02:09:48;10.67;;;7.50;;
11847;SDS011;5983;49.966;8.052;2022-11-15T02:12:17;9.60;;;7.33;;
11847;SDS011;5983;49.966;8.052;2022-11-15T02:14:50;10.67;;;6.60;;
11847;SDS011;5983;49.966;8.052;2022-11-15T02:17:31;11.37;;;6.67;;
11847;SDS011;5983;49.966;8.052;2022-11-15T02:20:26;8.67;;;6.27;;
11847;SDS011;5983;49.966;8.052;2022-11-15T02:26:34;9.27;;;6.73;;
11847;SDS011;5983;49.966;8.052;2022-11-15T02:29:56;9.97;;;6.70;;
11847;SDS011;5983;49.966;8.052;2022-11-15T02:32:57;11.77;;;7.30;;
11847;SDS011;5983;49.966;8.052;2022-11-15T02:35:34;9.07;;;6.70;;
11847;SDS011;5983;49.966;8.052;2022-11-15T02:38:12;7.33;;;6.13;;
11847;SDS011;5983;49.966;8.052;2022-11-15T02:40:52;8.77;;;6.40;;
11847;SDS011;5983;49.966;8.052;2022-11-15T02:43:28;11.10;;;6.27;;
11847;SDS011;5983;49.966;8.052;2022-11-15T02:46:20;11.43;;;6.47;;
11847;SDS011;5983;49.966;8.052;2022-11-15T02:49:09;8.47;;;6.47;;
11847;SDS011;5983;49.966;8.052;2022-11-15T02:51:39;8.53;;;6.27;;
11847;SDS011;5983;49.966;8.052;2022-11-15T02:54:10;7.90;;;6.00;;
11847;SDS011;5983;49.966;8.052;2022-11-15T02:56:42;9.33;;;6.63;;
11847;SDS011;5983;49.966;8.052;2022-11-15T03:02:28;7.47;;;5.80;;
11847;SDS011;5983;49.966;8.052;2022-11-15T03:05:18;9.67;;;6.73;;
11847;SDS011;5983;49.966;8.052;2022-11-15T03:07:56;7.40;;;6.40;;
11847;SDS011;5983;49.966;8.052;2022-11-15T03:10:34;10.73;;;7.50;;
11847;SDS011;5983;49.966;8.052;2022-11-15T03:13:16;9.53;;;6.70;;
11847;SDS011;5983;49.966;8.052;2022-11-15T03:15:53;11.57;;;7.20;;
11847;SDS011;5983;49.966;8.052;2022-11-15T03:18:32;10.83;;;7.63;;
11847;SDS011;5983;49.966;8.052;2022-11-15T03:21:04;8.30;;;6.20;;
11847;SDS011;5983;49.966;8.052;2022-11-15T03:23:34;7.90;;;6.43;;
11847;SDS011;5983;49.966;8.052;2022-11-15T03:26:06;8.57;;;6.20;;
11847;SDS011;5983;49.966;8.052;2022-11-15T03:28:38;8.90;;;6.80;;
11847;SDS011;5983;49.966;8.052;2022-11-15T03:31:09;8.37;;;6.27;;
11847;SDS011;5983;49.966;8.052;2022-11-15T03:34:00;9.27;;;6.97;;
11847;SDS011;5983;49.966;8.052;2022-11-15T03:36:34;8.40;;;6.23;;
11847;SDS011;5983;49.966;8.052;2022-11-15T03:39:04;8.53;;;6.10;;
11847;SDS011;5983;49.966;8.052;2022-11-15T03:41:35;8.40;;;6.40;;
11847;SDS011;5983;49.966;8.052;2022-11-15T03:44:12;9.23;;;6.13;;
11847;SDS011;5983;49.966;8.052;2022-11-15T03:46:53;9.00;;;6.30;;
11847;SDS011;5983;49.966;8.052;2022-11-15T03:49:31;8.37;;;6.37;;
11847;SDS011;5983;49.966;8.052;2022-11-15T03:52:01;7.47;;;5.70;;
11847;SDS011;5983;49.966;8.052;2022-11-15T03:54:30;7.00;;;5.90;;
11847;SDS011;5983;49.966;8.052;2022-11-15T03:56:57;6.93;;;5.67;;
11847;SDS011;5983;49.966;8.052;2022-11-15T03:59:24;6.30;;;5.47;;
11847;SDS011;5983;49.966;8.052;2022-11-15T04:01:51;9.27;;;6.37;;
11847;SDS011;5983;49.966;8.052;2022-11-15T04:04:18;8.67;;;6.03;;
11847;SDS011;5983;49.966;8.052;2022-11-15T04:06:46;8.37;;;6.00;;
11847;SDS011;5983;49.966;8.052;2022-11-15T04:09:13;9.57;;;6.47;;
11847;SDS011;5983;49.966;8.052;2022-11-15T04:11:40;8.17;;;5.90;;
11847;SDS011;5983;49.966;8.052;2022-11-15T04:14:07;9.90;;;6.33;;
11847;SDS011;5983;49.966;8.052;2022-11-15T04:16:34;7.70;;;5.50;;
11847;SDS011;5983;49.966;8.052;2022-11-15T04:19:01;6.57;;;5.67;;
11847;SDS011;5983;49.966;8.052;2022-11-15T04:21:47;6.23;;;5.03;;
11847;SDS011;5983;49.966;8.052;2022-11-15T04:24:32;8.40;;;5.40;;
11847;SDS011;5983;49.966;8.052;2022-11-15T04:26:59;9.33;;;6.03;;
11847;SDS011;5983;49.966;8.052;2022-11-15T04:29:27;8.37;;;5.87;;
11847;SDS011;5983;49.966;8.052;2022-11-15T04:32:03;7.50;;;5.73;;
11847;SDS011;5983;49.966;8.052;2022-11-15T04:34:32;5.87;;;5.00;;
11847;SDS011;5983;49.966;8.052;2022-11-15T04:37:01;8.03;;;5.67;;
11847;SDS011;5983;49.966;8.052;2022-11-15T04:39:36;7.43;;;5.67;;
11847;SDS011;5983;49.966;8.052;2022-11-15T04:42:03;9.37;;;6.13;;
11847;SDS011;5983;49.966;8.052;2022-11-15T04:44:30;7.63;;;5.90;;
11847;SDS011;5983;49.966;8.052;2022-11-15T04:46:57;7.83;;;5.37;;
11847;SDS011;5983;49.966;8.052;2022-11-15T04:49:24;8.30;;;6.20;;
11847;SDS011;5983;49.966;8.052;2022-11-15T04:51:51;7.47;;;5.33;;
11847;SDS011;5983;49.966;8.052;2022-11-15T04:54:20;6.10;;;5.10;;
11847;SDS011;5983;49.966;8.052;2022-11-15T04:56:46;6.53;;;5.43;;
11847;SDS011;5983;49.966;8.052;2022-11-15T04:59:13;6.37;;;5.07;;
11847;SDS011;5983;49.966;8.052;2022-11-15T05:01:40;7.37;;;5.67;;
11847;SDS011;5983;49.966;8.052;2022-11-15T05:04:07;7.67;;;5.23;;
11847;SDS011;5983;49.966;8.052;2022-11-15T05:06:46;9.50;;;5.80;;
11847;SDS011;5983;49.966;8.052;2022-11-15T05:09:15;6.67;;;4.67;;
11847;SDS011;5983;49.966;8.052;2022-11-15T05:11:44;7.97;;;4.80;;
11847;SDS011;5983;49.966;8.052;2022-11-15T05:14:11;7.03;;;5.33;;
11847;SDS011;5983;49.966;8.052;2022-11-15T05:16:39;6.57;;;4.87;;
11847;SDS011;5983;49.966;8.052;2022-11-15T05:19:06;6.17;;;5.00;;
11847;SDS011;5983;49.966;8.052;2022-11-15T05:21:33;7.73;;;5.90;;
11847;SDS011;5983;49.966;8.052;2022-11-15T05:24:01;7.30;;;5.30;;
11847;SDS011;5983;49.966;8.052;2022-11-15T05:26:29;6.30;;;5.20;;
11847;SDS011;5983;49.966;8.052;2022-11-15T05:28:58;5.83;;;4.87;;
11847;SDS011;5983;49.966;8.052;2022-11-15T05:31:26;11.13;;;5.27;;
11847;SDS011;5983;49.966;8.052;2022-11-15T05:33:54;8.10;;;5.70;;
11847;SDS011;5983;49.966;8.052;2022-11-15T05:36:25;6.77;;;5.10;;
11847;SDS011;5983;49.966;8.052;2022-11-15T05:38:59;7.50;;;5.27;;
11847;SDS011;5983;49.966;8.052;2022-11-15T05:41:29;11.87;;;5.10;;
11847;SDS011;5983;49.966;8.052;2022-11-15T05:44:01;6.53;;;4.87;;
11847;SDS011;5983;49.966;8.052;2022-11-15T05:46:33;7.23;;;5.67;;
11847;SDS011;5983;49.966;8.052;2022-11-15T05:49:03;5.37;;;4.60;;
11847;SDS011;5983;49.966;8.052;2022-11-15T05:51:36;6.27;;;5.13;;
11847;SDS011;5983;49.966;8.052;2022-11-15T05:54:03;7.40;;;5.20;;
11847;SDS011;5983;49.966;8.052;2022-11-15T05:56:30;9.13;;;5.00;;
11847;SDS011;5983;49.966;8.052;2022-11-15T05:58:57;7.73;;;5.73;;
11847;SDS011;5983;49.966;8.052;2022-11-15T06:01:26;8.87;;;5.63;;
11847;SDS011;5983;49.966;8.052;2022-11-15T06:03:54;8.47;;;6.00;;
11847;SDS011;5983;49.966;8.052;2022-11-15T06:06:21;8.53;;;6.27;;
11847;SDS011;5983;49.966;8.052;2022-11-15T06:08:48;8.13;;;6.20;;
11847;SDS011;5983;49.966;8.052;2022-11-15T06:11:15;6.63;;;5.30;;
11847;SDS011;5983;49.966;8.052;2022-11-15T06:13:42;8.20;;;5.67;;
11847;SDS011;5983;49.966;8.052;2022-11-15T06:16:09;8.53;;;5.67;;
11847;SDS011;5983;49.966;8.052;2022-11-15T06:18:37;8.60;;;6.33;;
11847;SDS011;5983;49.966;8.052;2022-11-15T06:21:04;9.47;;;6.30;;
11847;SDS011;5983;49.966;8.052;2022-11-15T06:23:32;7.43;;;6.10;;
11847;SDS011;5983;49.966;8.052;2022-11-15T06:26:01;9.67;;;5.67;;
11847;SDS011;5983;49.966;8.052;2022-11-15T06:28:29;7.07;;;5.80;;
11847;SDS011;5983;49.966;8.052;2022-11-15T06:31:01;7.30;;;5.47;;
11847;SDS011;5983;49.966;8.052;2022-11-15T06:33:29;7.83;;;5.67;;
11847;SDS011;5983;49.966;8.052;2022-11-15T06:36:00;12.03;;;5.47;;
11847;SDS011;5983;49.966;8.052;2022-11-15T06:38:27;9.23;;;5.80;;
11847;SDS011;5983;49.966;8.052;2022-11-15T06:40:55;9.37;;;6.10;;
11847;SDS011;5983;49.966;8.052;2022-11-15T06:43:27;8.33;;;5.50;;
11847;SDS011;5983;49.966;8.052;2022-11-15T06:45:54;9.87;;;5.90;;
11847;SDS011;5983;49.966;8.052;2022-11-15T06:48:21;8.43;;;5.40;;
11847;SDS011;5983;49.966;8.052;2022-11-15T06:50:50;9.60;;;6.30;;
11847;SDS011;5983;49.966;8.052;2022-11-15T06:53:19;10.33;;;6.07;;
11847;SDS011;5983;49.966;8.052;2022-11-15T06:55:46;8.60;;;5.60;;
11847;SDS011;5983;49.966;8.052;2022-11-15T06:58:13;9.17;;;6.23;;
11847;SDS011;5983;49.966;8.052;2022-11-15T07:00:40;9.00;;;6.30;;
11847;SDS011;5983;49.966;8.052;2022-11-15T07:03:08;8.77;;;6.20;;
11847;SDS011;5983;49.966;8.052;2022-11-15T07:05:35;8.50;;;5.73;;
11847;SDS011;5983;49.966;8.052;2022-11-15T07:08:03;8.07;;;5.97;;
11847;SDS011;5983;49.966;8.052;2022-11-15T07:10:31;7.57;;;5.63;;
11847;SDS011;5983;49.966;8.052;2022-11-15T07:12:58;5.60;;;4.83;;
11847;SDS011;5983;49.966;8.052;2022-11-15T07:15:25;7.47;;;5.33;;
11847;SDS011;5983;49.966;8.052;2022-11-15T07:17:52;10.03;;;5.00;;
11847;SDS011;5983;49.966;8.052;2022-11-15T07:20:19;6.03;;;5.20;;
11847;SDS011;5983;49.966;8.052;2022-11-15T07:22:46;8.00;;;4.80;;
11847;SDS011;5983;49.966;8.052;2022-11-15T07:25:13;7.47;;;5.73;;
11847;SDS011;5983;49.966;8.052;2022-11-15T07:27:41;7.07;;;5.60;;
11847;SDS011;5983;49.966;8.052;2022-11-15T07:30:09;8.40;;;6.30;;
11847;SDS011;5983;49.966;8.052;2022-11-15T07:32:37;8.23;;;6.57;;
11847;SDS011;5983;49.966;8.052;2022-11-15T07:35:04;9.67;;;6.23;;
11847;SDS011;5983;49.966;8.052;2022-11-15T07:37:32;11.13;;;6.53;;
11847;SDS011;5983;49.966;8.052;2022-11-15T07:39:59;11.43;;;8.37;;
11847;SDS011;5983;49.966;8.052;2022-11-15T07:42:25;9.20;;;7.73;;
11847;SDS011;5983;49.966;8.052;2022-11-15T07:45:11;12.80;;;8.93;;
11847;SDS011;5983;49.966;8.052;2022-11-15T07:47:38;12.73;;;7.90;;
11847;SDS011;5983;49.966;8.052;2022-11-15T07:50:05;9.37;;;7.23;;
11847;SDS011;5983;49.966;8.052;2022-11-15T07:52:33;7.10;;;6.40;;
11847;SDS011;5983;49.966;8.052;2022-11-15T07:55:00;10.73;;;7.50;;
11847;SDS011;5983;49.966;8.052;2022-11-15T07:57:27;7.57;;;6.23;;
11847;SDS011;5983;49.966;8.052;2022-11-15T07:59:55;9.07;;;6.30;;
11847;SDS011;5983;49.966;8.052;2022-11-15T08:02:23;7.67;;;6.40;;
11847;SDS011;5983;49.966;8.052;2022-11-15T08:04:50;8.63;;;7.20;;
11847;SDS011;5983;49.966;8.052;2022-11-15T08:07:17;12.70;;;9.13;;
11847;SDS011;5983;49.966;8.052;2022-11-15T08:09:44;10.63;;;8.20;;
11847;SDS011;5983;49.966;8.052;2022-11-15T08:12:11;9.23;;;7.00;;
11847;SDS011;5983;49.966;8.052;2022-11-15T08:14:38;8.73;;;5.93;;
11847;SDS011;5983;49.966;8.052;2022-11-15T08:17:05;7.40;;;5.87;;
11847;SDS011;5983;49.966;8.052;2022-11-15T08:19:33;7.83;;;5.97;;
11847;SDS011;5983;49.966;8.052;2022-11-15T08:22:00;7.20;;;5.70;;
11847;SDS011;5983;49.966;8.052;2022-11-15T08:24:27;7.80;;;6.10;;
11847;SDS011;5983;49.966;8.052;2022-11-15T08:26:54;9.33;;;6.13;;
11847;SDS011;5983;49.966;8.052;2022-11-15T08:29:21;7.17;;;5.90;;
11847;SDS011;5983;49.966;8.052;2022-11-15T08:31:48;6.53;;;5.30;;
11847;SDS011;5983;49.966;8.052;2022-11-15T08:34:15;7.80;;;5.50;;
11847;SDS011;5983;49.966;8.052;2022-11-15T08:36:43;6.87;;;5.77;;
11847;SDS011;5983;49.966;8.052;2022-11-15T08:39:10;8.03;;;5.53;;
11847;SDS011;5983;49.966;8.052;2022-11-15T08:41:38;6.37;;;5.60;;
11847;SDS011;5983;49.966;8.052;2022-11-15T08:44:05;9.13;;;6.17;;
11847;SDS011;5983;49.966;8.052;2022-11-15T08:46:32;8.40;;;5.87;;
11847;SDS011;5983;49.966;8.052;2022-11-15T08:48:59;7.53;;;5.93;;
11847;SDS011;5983;49.966;8.052;2022-11-15T08:51:26;6.67;;;5.40;;
11847;SDS011;5983;49.966;8.052;2022-11-15T08:53:55;7.67;;;5.83;;
11847;SDS011;5983;49.966;8.052;2022-11-15T08:56:21;8.17;;;5.80;;
11847;SDS011;5983;49.966;8.052;2022-11-15T08:58:48;8.30;;;5.90;;
11847;SDS011;5983;49.966;8.052;2022-11-15T09:01:16;7.83;;;6.40;;
11847;SDS011;5983;49.966;8.052;2022-11-15T09:03:45;7.20;;;6.23;;
11847;SDS011;5983;49.966;8.052;2022-11-15T09:06:12;7.43;;;6.10;;
11847;SDS011;5983;49.966;8.052;2022-11-15T09:08:39;7.30;;;5.97;;
11847;SDS011;5983;49.966;8.052;2022-11-15T09:11:09;10.03;;;6.47;;
11847;SDS011;5983;49.966;8.052;2022-11-15T09:13:36;9.07;;;6.90;;
11847;SDS011;5983;49.966;8.052;2022-11-15T09:16:03;7.87;;;6.90;;
11847;SDS011;5983;49.966;8.052;2022-11-15T09:18:31;11.13;;;7.27;;
11847;SDS011;5983;49.966;8.052;2022-11-15T09:20:59;8.30;;;6.63;;
11847;SDS011;5983;49.966;8.052;2022-11-15T09:23:27;10.50;;;7.37;;
11847;SDS011;5983;49.966;8.052;2022-11-15T09:25:58;10.23;;;7.37;;
11847;SDS011;5983;49.966;8.052;2022-11-15T09:28:29;11.33;;;8.33;;
11847;SDS011;5983;49.966;8.052;2022-11-15T09:30:58;12.47;;;8.30;;
11847;SDS011;5983;49.966;8.052;2022-11-15T09:33:26;12.13;;;8.43;;
11847;SDS011;5983;49.966;8.052;2022-11-15T09:35:53;9.67;;;8.03;;
11847;SDS011;5983;49.966;8.052;2022-11-15T09:38:25;10.63;;;8.07;;
11847;SDS011;5983;49.966;8.052;2022-11-15T09:40:56;13.10;;;8.57;;
11847;SDS011;5983;49.966;8.052;2022-11-15T09:43:50;14.30;;;9.97;;
11847;SDS011;5983;49.966;8.052;2022-11-15T09:46:36;46.53;;;20.77;;
11847;SDS011;5983;49.966;8.052;2022-11-15T09:49:20;232.70;;;83.97;;
11847;SDS011;5983;49.966;8.052;2022-11-15T09:51:49;236.10;;;86.20;;
11847;SDS011;5983;49.966;8.052;2022-11-15T09:54:23;183.57;;;72.03;;
11847;SDS011;5983;49.966;8.052;2022-11-15T09:56:56;140.77;;;55.50;;
11847;SDS011;5983;49.966;8.052;2022-11-15T10:02:31;60.60;;;31.33;;
11847;SDS011;5983;49.966;8.052;2022-11-15T10:05:14;45.33;;;25.67;;
11847;SDS011;5983;49.966;8.052;2022-11-15T10:07:46;31.23;;;19.33;;
11847;SDS011;5983;49.966;8.052;2022-11-15T10:10:25;28.47;;;15.60;;
11847;SDS011;5983;49.966;8.052;2022-11-15T10:13:00;19.47;;;12.13;;
11847;SDS011;5983;49.966;8.052;2022-11-15T10:15:29;15.10;;;10.20;;
11847;SDS011;5983;49.966;8.052;2022-11-15T10:18:13;14.27;;;8.93;;
11847;SDS011;5983;49.966;8.052;2022-11-15T10:20:46;11.83;;;8.77;;
11847;SDS011;5983;49.966;8.052;2022-11-15T10:23:17;11.00;;;7.83;;
11847;SDS011;5983;49.966;8.052;2022-11-15T10:25:47;11.63;;;7.63;;
11847;SDS011;5983;49.966;8.052;2022-11-15T10:28:20;11.83;;;7.30;;
11847;SDS011;5983;49.966;8.052;2022-11-15T10:30:54;9.80;;;7.10;;
11847;SDS011;5983;49.966;8.052;2022-11-15T10:33:24;9.83;;;6.67;;
11847;SDS011;5983;49.966;8.052;2022-11-15T10:38:53;18.30;;;11.03;;
11847;SDS011;5983;49.966;8.052;2022-11-15T10:41:30;16.67;;;9.37;;
11847;SDS011;5983;49.966;8.052;2022-11-15T10:44:07;15.80;;;9.60;;
11847;SDS011;5983;49.966;8.052;2022-11-15T10:47:03;13.13;;;7.80;;
11847;SDS011;5983;49.966;8.052;2022-11-15T10:50:04;10.97;;;7.40;;
11847;SDS011;5983;49.966;8.052;2022-11-15T10:52:52;7.77;;;6.20;;
11847;SDS011;5983;49.966;8.052;2022-11-15T10:55:21;10.80;;;6.30;;
11847;SDS011;5983;49.966;8.052;2022-11-15T10:57:54;11.43;;;5.07;;
11847;SDS011;5983;49.966;8.052;2022-11-15T11:00:32;6.60;;;4.80;;
11847;SDS011;5983;49.966;8.052;2022-11-15T11:03:05;5.70;;;4.57;;
11847;SDS011;5983;49.966;8.052;2022-11-15T11:06:02;6.70;;;4.83;;
11847;SDS011;5983;49.966;8.052;2022-11-15T11:08:33;5.97;;;4.47;;
11847;SDS011;5983;49.966;8.052;2022-11-15T11:11:00;5.27;;;4.63;;
11847;SDS011;5983;49.966;8.052;2022-11-15T11:13:30;6.40;;;4.53;;
11847;SDS011;5983;49.966;8.052;2022-11-15T11:16:03;5.90;;;4.30;;
11847;SDS011;5983;49.966;8.052;2022-11-15T11:19:12;5.33;;;4.27;;
11847;SDS011;5983;49.966;8.052;2022-11-15T11:22:04;4.73;;;3.97;;
11847;SDS011;5983;49.966;8.052;2022-11-15T11:24:44;4.33;;;3.63;;
11847;SDS011;5983;49.966;8.052;2022-11-15T11:27:24;7.53;;;4.30;;
11847;SDS011;5983;49.966;8.052;2022-11-15T11:30:08;7.20;;;4.50;;
11847;SDS011;5983;49.966;8.052;2022-11-15T11:32:55;6.03;;;4.40;;
11847;SDS011;5983;49.966;8.052;2022-11-15T11:35:39;6.93;;;4.93;;
11847;SDS011;5983;49.966;8.052;2022-11-15T11:38:39;5.00;;;4.17;;
11847;SDS011;5983;49.966;8.052;2022-11-15T11:41:21;7.03;;;5.13;;
11847;SDS011;5983;49.966;8.052;2022-11-15T11:44:18;8.90;;;5.17;;
11847;SDS011;5983;49.966;8.052;2022-11-15T11:46:59;10.03;;;5.13;;
11847;SDS011;5983;49.966;8.052;2022-11-15T11:49:33;9.40;;;5.63;;
11847;SDS011;5983;49.966;8.052;2022-11-15T11:52:12;9.50;;;5.30;;
11847;SDS011;5983;49.966;8.052;2022-11-15T11:54:48;9.13;;;4.97;;
11847;SDS011;5983;49.966;8.052;2022-11-15T11:57:30;9.63;;;5.03;;
11847;SDS011;5983;49.966;8.052;2022-11-15T12:00:12;6.77;;;4.97;;
11847;SDS011;5983;49.966;8.052;2022-11-15T12:02:46;8.10;;;5.03;;
11847;SDS011;5983;49.966;8.052;2022-11-15T12:05:29;5.73;;;4.97;;
11847;SDS011;5983;49.966;8.052;2022-11-15T12:08:17;7.53;;;5.53;;
11847;SDS011;5983;49.966;8.052;2022-11-15T12:10:57;5.07;;;4.13;;
11847;SDS011;5983;49.966;8.052;2022-11-15T12:13:36;7.50;;;4.67;;
11847;SDS011;5983;49.966;8.052;2022-11-15T12:16:05;7.10;;;4.50;;
11847;SDS011;5983;49.966;8.052;2022-11-15T12:18:41;9.40;;;4.90;;
11847;SDS011;5983;49.966;8.052;2022-11-15T12:21:15;7.43;;;4.57;;
11847;SDS011;5983;49.966;8.052;2022-11-15T12:23:53;6.70;;;4.77;;
11847;SDS011;5983;49.966;8.052;2022-11-15T12:26:30;6.60;;;4.40;;
11847;SDS011;5983;49.966;8.052;2022-11-15T12:29:03;7.57;;;4.80;;
11847;SDS011;5983;49.966;8.052;2022-11-15T12:31:41;7.07;;;4.63;;
11847;SDS011;5983;49.966;8.052;2022-11-15T12:34:15;10.87;;;5.40;;
11847;SDS011;5983;49.966;8.052;2022-11-15T12:40:19;5.87;;;4.33;;
11847;SDS011;5983;49.966;8.052;2022-11-15T12:42:57;7.13;;;4.10;;
11847;SDS011;5983;49.966;8.052;2022-11-15T12:45:56;6.73;;;4.83;;
11847;SDS011;5983;49.966;8.052;2022-11-15T12:54:53;5.60;;;4.07;;
11847;SDS011;5983;49.966;8.052;2022-11-15T12:57:30;8.20;;;5.37;;
11847;SDS011;5983;49.966;8.052;2022-11-15T13:03:33;6.87;;;4.50;;
11847;SDS011;5983;49.966;8.052;2022-11-15T13:06:08;6.40;;;3.80;;
11847;SDS011;5983;49.966;8.052;2022-11-15T13:15:33;6.87;;;4.30;;
11847;SDS011;5983;49.966;8.052;2022-11-15T13:21:18;7.40;;;4.10;;
11847;SDS011;5983;49.966;8.052;2022-11-15T13:24:10;5.43;;;3.97;;
11847;SDS011;5983;49.966;8.052;2022-11-15T13:26:41;3.90;;;3.50;;
11847;SDS011;5983;49.966;8.052;2022-11-15T13:29:15;6.70;;;4.37;;
11847;SDS011;5983;49.966;8.052;2022-11-15T13:31:45;4.97;;;3.63;;
11847;SDS011;5983;49.966;8.052;2022-11-15T13:34:17;7.03;;;4.10;;
11847;SDS011;5983;49.966;8.052;2022-11-15T13:36:53;6.03;;;4.13;;
11847;SDS011;5983;49.966;8.052;2022-11-15T13:39:25;6.77;;;3.77;;
11847;SDS011;5983;49.966;8.052;2022-11-15T13:41:55;5.87;;;4.37;;
11847;SDS011;5983;49.966;8.052;2022-11-15T13:44:25;6.10;;;4.13;;
11847;SDS011;5983;49.966;8.052;2022-11-15T13:47:00;5.23;;;4.10;;
11847;SDS011;5983;49.966;8.052;2022-11-15T13:49:31;7.97;;;4.03;;
11847;SDS011;5983;49.966;8.052;2022-11-15T13:51:59;5.93;;;3.47;;
11847;SDS011;5983;49.966;8.052;2022-11-15T13:54:31;7.40;;;3.90;;
11847;SDS011;5983;49.966;8.052;2022-11-15T13:57:08;6.70;;;3.90;;
11847;SDS011;5983;49.966;8.052;2022-11-15T13:59:45;4.87;;;4.20;;
11847;SDS011;5983;49.966;8.052;2022-11-15T14:02:17;7.20;;;4.17;;
11847;SDS011;5983;49.966;8.052;2022-11-15T14:04:48;3.57;;;3.23;;
11847;SDS011;5983;49.966;8.052;2022-11-15T14:07:19;5.67;;;3.47;;
11847;SDS011;5983;49.966;8.052;2022-11-15T14:09:48;4.83;;;3.73;;
11847;SDS011;5983;49.966;8.052;2022-11-15T14:12:27;4.73;;;3.67;;
11847;SDS011;5983;49.966;8.052;2022-11-15T14:14:59;5.90;;;4.23;;
11847;SDS011;5983;49.966;8.052;2022-11-15T14:17:50;9.43;;;3.63;;
11847;SDS011;5983;49.966;8.052;2022-11-15T14:20:27;4.27;;;3.53;;
11847;SDS011;5983;49.966;8.052;2022-11-15T14:22:58;4.30;;;3.40;;
11847;SDS011;5983;49.966;8.052;2022-11-15T14:25:28;6.73;;;4.30;;
11847;SDS011;5983;49.966;8.052;2022-11-15T14:28:09;5.37;;;3.90;;
11847;SDS011;5983;49.966;8.052;2022-11-15T14:30:43;6.57;;;3.73;;
11847;SDS011;5983;49.966;8.052;2022-11-15T14:33:19;5.70;;;3.50;;
11847;SDS011;5983;49.966;8.052;2022-11-15T14:35:49;5.93;;;3.40;;
11847;SDS011;5983;49.966;8.052;2022-11-15T14:38:16;8.10;;;3.90;;
11847;SDS011;5983;49.966;8.052;2022-11-15T14:40:43;7.90;;;4.03;;
11847;SDS011;5983;49.966;8.052;2022-11-15T14:43:11;5.20;;;4.27;;
11847;SDS011;5983;49.966;8.052;2022-11-15T14:45:38;5.20;;;3.63;;
11847;SDS011;5983;49.966;8.052;2022-11-15T14:48:07;5.43;;;3.80;;
11847;SDS011;5983;49.966;8.052;2022-11-15T14:50:35;5.70;;;3.60;;
11847;SDS011;5983;49.966;8.052;2022-11-15T14:53:02;5.93;;;3.70;;
11847;SDS011;5983;49.966;8.052;2022-11-15T14:55:31;4.70;;;3.67;;
11847;SDS011;5983;49.966;8.052;2022-11-15T14:58:01;5.50;;;3.73;;
11847;SDS011;5983;49.966;8.052;2022-11-15T15:00:28;4.10;;;3.30;;
11847;SDS011;5983;49.966;8.052;2022-11-15T15:02:56;3.70;;;3.23;;
11847;SDS011;5983;49.966;8.052;2022-11-15T15:05:26;5.33;;;3.53;;
11847;SDS011;5983;49.966;8.052;2022-11-15T15:07:57;4.27;;;3.17;;
11847;SDS011;5983;49.966;8.052;2022-11-15T15:10:24;5.20;;;3.40;;
11847;SDS011;5983;49.966;8.052;2022-11-15T15:12:55;4.63;;;3.33;;
11847;SDS011;5983;49.966;8.052;2022-11-15T15:15:23;5.17;;;3.30;;
11847;SDS011;5983;49.966;8.052;2022-11-15T15:17:57;5.97;;;3.20;;
11847;SDS011;5983;49.966;8.052;2022-11-15T15:20:25;4.70;;;3.30;;
11847;SDS011;5983;49.966;8.052;2022-11-15T15:22:53;3.03;;;2.73;;
11847;SDS011;5983;49.966;8.052;2022-11-15T15:25:21;3.50;;;2.87;;
11847;SDS011;5983;49.966;8.052;2022-11-15T15:27:53;4.00;;;2.97;;
11847;SDS011;5983;49.966;8.052;2022-11-15T15:30:21;4.57;;;3.13;;
11847;SDS011;5983;49.966;8.052;2022-11-15T15:32:49;5.73;;;2.93;;
11847;SDS011;5983;49.966;8.052;2022-11-15T15:35:16;4.60;;;2.97;;
11847;SDS011;5983;49.966;8.052;2022-11-15T15:37:46;3.37;;;2.77;;
11847;SDS011;5983;49.966;8.052;2022-11-15T15:40:15;4.07;;;2.90;;
11847;SDS011;5983;49.966;8.052;2022-11-15T15:42:46;5.33;;;3.03;;
11847;SDS011;5983;49.966;8.052;2022-11-15T15:45:13;3.30;;;2.57;;
11847;SDS011;5983;49.966;8.052;2022-11-15T15:47:42;3.80;;;3.13;;
11847;SDS011;5983;49.966;8.052;2022-11-15T15:50:20;4.73;;;2.83;;
11847;SDS011;5983;49.966;8.052;2022-11-15T15:52:51;5.00;;;2.70;;
11847;SDS011;5983;49.966;8.052;2022-11-15T15:55:20;3.77;;;2.80;;
11847;SDS011;5983;49.966;8.052;2022-11-15T15:57:48;4.47;;;2.57;;
11847;SDS011;5983;49.966;8.052;2022-11-15T16:00:16;6.70;;;3.33;;
11847;SDS011;5983;49.966;8.052;2022-11-15T16:02:45;4.00;;;2.57;;
11847;SDS011;5983;49.966;8.052;2022-11-15T16:05:12;2.87;;;2.23;;